sensor_id;sensor_type;location;lat;lon;timestamp;P1;durP1;ratioP1;P2;durP2;ratioP2
16832;SDS011;8533;48.426;10.868;2023-04-15T00:00:44;5.53;;;3.20;;
16832;SDS011;8533;48.426;10.868;2023-04-15T00:03:11;4.33;;;3.57;;
16832;SDS011;8533;48.426;10.868;2023-04-15T00:05:38;3.97;;;3.07;;
16832;SDS011;8533;48.426;10.868;2023-04-15T00:08:06;5.37;;;3.53;;
16832;SDS011;8533;48.426;10.868;2023-04-15T00:10:34;4.03;;;3.40;;
16832;SDS011;8533;48.426;10.868;2023-04-15T00:13:01;3.97;;;3.50;;
16832;SDS011;8533;48.426;10.868;2023-04-15T00:15:29;6.60;;;3.70;;
16832;SDS011;8533;48.426;10.868;2023-04-15T00:17:56;5.87;;;4.03;;
16832;SDS011;8533;48.426;10.868;2023-04-15T00:20:24;6.07;;;3.60;;
16832;SDS011;8533;48.426;10.868;2023-04-15T00:22:51;9.37;;;3.77;;
16832;SDS011;8533;48.426;10.868;2023-04-15T00:25:19;5.10;;;3.57;;
16832;SDS011;8533;48.426;10.868;2023-04-15T00:27:46;4.97;;;3.60;;
16832;SDS011;8533;48.426;10.868;2023-04-15T00:30:14;4.50;;;3.60;;
16832;SDS011;8533;48.426;10.868;2023-04-15T00:32:41;6.40;;;3.63;;
16832;SDS011;8533;48.426;10.868;2023-04-15T00:35:09;7.37;;;4.10;;
16832;SDS011;8533;48.426;10.868;2023-04-15T00:37:37;6.23;;;3.87;;
16832;SDS011;8533;48.426;10.868;2023-04-15T00:40:04;8.77;;;3.67;;
16832;SDS011;8533;48.426;10.868;2023-04-15T00:42:34;7.60;;;3.83;;
16832;SDS011;8533;48.426;10.868;2023-04-15T00:45:03;6.23;;;3.60;;
16832;SDS011;8533;48.426;10.868;2023-04-15T00:47:31;5.50;;;3.60;;
16832;SDS011;8533;48.426;10.868;2023-04-15T00:50:01;5.30;;;3.37;;
16832;SDS011;8533;48.426;10.868;2023-04-15T00:52:29;7.43;;;3.90;;
16832;SDS011;8533;48.426;10.868;2023-04-15T00:54:57;7.97;;;4.27;;
16832;SDS011;8533;48.426;10.868;2023-04-15T00:57:25;3.77;;;3.33;;
16832;SDS011;8533;48.426;10.868;2023-04-15T00:59:54;5.47;;;3.70;;
16832;SDS011;8533;48.426;10.868;2023-04-15T01:02:22;5.07;;;3.57;;
16832;SDS011;8533;48.426;10.868;2023-04-15T01:04:50;6.50;;;3.80;;
16832;SDS011;8533;48.426;10.868;2023-04-15T01:07:17;5.43;;;3.60;;
16832;SDS011;8533;48.426;10.868;2023-04-15T01:09:45;5.60;;;3.40;;
16832;SDS011;8533;48.426;10.868;2023-04-15T01:12:12;4.93;;;3.40;;
16832;SDS011;8533;48.426;10.868;2023-04-15T01:14:42;5.50;;;3.70;;
16832;SDS011;8533;48.426;10.868;2023-04-15T01:17:10;5.97;;;3.37;;
16832;SDS011;8533;48.426;10.868;2023-04-15T01:19:38;6.63;;;3.97;;
16832;SDS011;8533;48.426;10.868;2023-04-15T01:22:06;5.60;;;3.73;;
16832;SDS011;8533;48.426;10.868;2023-04-15T01:24:33;8.43;;;3.70;;
16832;SDS011;8533;48.426;10.868;2023-04-15T01:27:03;5.90;;;3.57;;
16832;SDS011;8533;48.426;10.868;2023-04-15T01:29:31;4.80;;;3.70;;
16832;SDS011;8533;48.426;10.868;2023-04-15T01:32:01;10.63;;;3.80;;
16832;SDS011;8533;48.426;10.868;2023-04-15T01:34:29;5.03;;;3.37;;
16832;SDS011;8533;48.426;10.868;2023-04-15T01:36:56;5.60;;;3.57;;
16832;SDS011;8533;48.426;10.868;2023-04-15T01:39:23;5.70;;;3.63;;
16832;SDS011;8533;48.426;10.868;2023-04-15T01:41:51;3.67;;;3.10;;
16832;SDS011;8533;48.426;10.868;2023-04-15T01:44:18;8.80;;;3.63;;
16832;SDS011;8533;48.426;10.868;2023-04-15T01:46:46;5.23;;;3.60;;
16832;SDS011;8533;48.426;10.868;2023-04-15T01:49:13;4.30;;;3.47;;
16832;SDS011;8533;48.426;10.868;2023-04-15T01:51:41;4.13;;;3.13;;
16832;SDS011;8533;48.426;10.868;2023-04-15T01:54:09;4.20;;;3.53;;
16832;SDS011;8533;48.426;10.868;2023-04-15T01:56:36;5.60;;;3.63;;
16832;SDS011;8533;48.426;10.868;2023-04-15T01:59:04;5.73;;;3.40;;
16832;SDS011;8533;48.426;10.868;2023-04-15T02:01:32;4.67;;;3.47;;
16832;SDS011;8533;48.426;10.868;2023-04-15T02:03:59;6.80;;;3.83;;
16832;SDS011;8533;48.426;10.868;2023-04-15T02:06:27;5.10;;;3.63;;
16832;SDS011;8533;48.426;10.868;2023-04-15T02:08:54;5.73;;;3.60;;
16832;SDS011;8533;48.426;10.868;2023-04-15T02:11:21;4.33;;;3.17;;
16832;SDS011;8533;48.426;10.868;2023-04-15T02:13:49;5.80;;;3.43;;
16832;SDS011;8533;48.426;10.868;2023-04-15T02:16:17;5.27;;;3.47;;
16832;SDS011;8533;48.426;10.868;2023-04-15T02:18:45;6.60;;;3.60;;
16832;SDS011;8533;48.426;10.868;2023-04-15T02:21:13;6.20;;;3.90;;
16832;SDS011;8533;48.426;10.868;2023-04-15T02:23:40;6.33;;;3.83;;
16832;SDS011;8533;48.426;10.868;2023-04-15T02:26:08;5.40;;;3.20;;
16832;SDS011;8533;48.426;10.868;2023-04-15T02:28:36;5.00;;;3.53;;
16832;SDS011;8533;48.426;10.868;2023-04-15T02:31:06;5.30;;;3.47;;
16832;SDS011;8533;48.426;10.868;2023-04-15T02:33:34;7.77;;;3.53;;
16832;SDS011;8533;48.426;10.868;2023-04-15T02:36:02;7.30;;;3.43;;
16832;SDS011;8533;48.426;10.868;2023-04-15T02:38:30;4.83;;;3.70;;
16832;SDS011;8533;48.426;10.868;2023-04-15T02:40:58;6.33;;;3.70;;
16832;SDS011;8533;48.426;10.868;2023-04-15T02:43:26;5.40;;;3.93;;
16832;SDS011;8533;48.426;10.868;2023-04-15T02:45:53;9.43;;;3.53;;
16832;SDS011;8533;48.426;10.868;2023-04-15T02:48:22;5.30;;;3.43;;
16832;SDS011;8533;48.426;10.868;2023-04-15T02:50:50;4.63;;;3.73;;
16832;SDS011;8533;48.426;10.868;2023-04-15T02:53:18;5.03;;;3.43;;
16832;SDS011;8533;48.426;10.868;2023-04-15T02:55:45;4.90;;;3.70;;
16832;SDS011;8533;48.426;10.868;2023-04-15T02:58:12;6.27;;;4.10;;
16832;SDS011;8533;48.426;10.868;2023-04-15T03:00:40;4.70;;;3.63;;
16832;SDS011;8533;48.426;10.868;2023-04-15T03:03:07;7.20;;;3.70;;
16832;SDS011;8533;48.426;10.868;2023-04-15T03:05:35;6.97;;;4.00;;
16832;SDS011;8533;48.426;10.868;2023-04-15T03:08:03;4.83;;;3.33;;
16832;SDS011;8533;48.426;10.868;2023-04-15T03:10:31;5.73;;;3.67;;
16832;SDS011;8533;48.426;10.868;2023-04-15T03:12:58;5.43;;;3.33;;
16832;SDS011;8533;48.426;10.868;2023-04-15T03:15:26;6.30;;;3.50;;
16832;SDS011;8533;48.426;10.868;2023-04-15T03:17:53;4.30;;;3.47;;
16832;SDS011;8533;48.426;10.868;2023-04-15T03:20:20;6.10;;;3.73;;
16832;SDS011;8533;48.426;10.868;2023-04-15T03:22:48;5.07;;;3.47;;
16832;SDS011;8533;48.426;10.868;2023-04-15T03:25:16;4.57;;;3.10;;
16832;SDS011;8533;48.426;10.868;2023-04-15T03:27:43;6.00;;;3.57;;
16832;SDS011;8533;48.426;10.868;2023-04-15T03:30:10;7.13;;;4.03;;
16832;SDS011;8533;48.426;10.868;2023-04-15T03:32:38;6.00;;;4.17;;
16832;SDS011;8533;48.426;10.868;2023-04-15T03:35:06;6.40;;;3.60;;
16832;SDS011;8533;48.426;10.868;2023-04-15T03:37:34;6.53;;;3.80;;
16832;SDS011;8533;48.426;10.868;2023-04-15T03:40:01;6.77;;;3.63;;
16832;SDS011;8533;48.426;10.868;2023-04-15T03:42:29;4.93;;;3.37;;
16832;SDS011;8533;48.426;10.868;2023-04-15T03:44:56;6.80;;;3.63;;
16832;SDS011;8533;48.426;10.868;2023-04-15T03:47:24;3.90;;;3.27;;
16832;SDS011;8533;48.426;10.868;2023-04-15T03:49:51;5.43;;;3.43;;
16832;SDS011;8533;48.426;10.868;2023-04-15T03:52:19;5.23;;;3.80;;
16832;SDS011;8533;48.426;10.868;2023-04-15T03:54:46;5.17;;;3.27;;
16832;SDS011;8533;48.426;10.868;2023-04-15T03:57:13;7.33;;;3.33;;
16832;SDS011;8533;48.426;10.868;2023-04-15T03:59:41;7.80;;;3.87;;
16832;SDS011;8533;48.426;10.868;2023-04-15T04:02:08;5.87;;;3.57;;
16832;SDS011;8533;48.426;10.868;2023-04-15T04:04:36;4.90;;;3.67;;
16832;SDS011;8533;48.426;10.868;2023-04-15T04:07:03;7.93;;;3.83;;
16832;SDS011;8533;48.426;10.868;2023-04-15T04:09:30;6.53;;;3.80;;
16832;SDS011;8533;48.426;10.868;2023-04-15T04:11:58;11.10;;;4.47;;
16832;SDS011;8533;48.426;10.868;2023-04-15T04:14:27;6.17;;;4.00;;
16832;SDS011;8533;48.426;10.868;2023-04-15T04:16:54;4.40;;;3.13;;
16832;SDS011;8533;48.426;10.868;2023-04-15T04:19:22;6.87;;;3.87;;
16832;SDS011;8533;48.426;10.868;2023-04-15T04:21:50;6.33;;;4.07;;
16832;SDS011;8533;48.426;10.868;2023-04-15T04:24:17;5.63;;;3.67;;
16832;SDS011;8533;48.426;10.868;2023-04-15T04:26:45;5.63;;;3.83;;
16832;SDS011;8533;48.426;10.868;2023-04-15T04:29:12;6.40;;;4.20;;
16832;SDS011;8533;48.426;10.868;2023-04-15T04:31:40;5.93;;;4.20;;
16832;SDS011;8533;48.426;10.868;2023-04-15T04:34:07;6.20;;;3.87;;
16832;SDS011;8533;48.426;10.868;2023-04-15T04:36:34;6.83;;;3.90;;
16832;SDS011;8533;48.426;10.868;2023-04-15T04:39:02;7.60;;;3.83;;
16832;SDS011;8533;48.426;10.868;2023-04-15T04:41:29;8.37;;;4.20;;
16832;SDS011;8533;48.426;10.868;2023-04-15T04:43:57;7.07;;;4.43;;
16832;SDS011;8533;48.426;10.868;2023-04-15T04:46:24;6.87;;;4.43;;
16832;SDS011;8533;48.426;10.868;2023-04-15T04:48:52;11.63;;;4.70;;
16832;SDS011;8533;48.426;10.868;2023-04-15T04:51:20;6.63;;;4.03;;
16832;SDS011;8533;48.426;10.868;2023-04-15T04:53:47;7.63;;;4.43;;
16832;SDS011;8533;48.426;10.868;2023-04-15T04:56:15;6.80;;;4.50;;
16832;SDS011;8533;48.426;10.868;2023-04-15T04:58:42;8.20;;;4.83;;
16832;SDS011;8533;48.426;10.868;2023-04-15T05:01:10;10.10;;;4.20;;
16832;SDS011;8533;48.426;10.868;2023-04-15T05:03:38;6.73;;;4.23;;
16832;SDS011;8533;48.426;10.868;2023-04-15T05:06:05;6.57;;;4.00;;
16832;SDS011;8533;48.426;10.868;2023-04-15T05:08:33;9.17;;;4.17;;
16832;SDS011;8533;48.426;10.868;2023-04-15T05:11:01;6.43;;;4.00;;
16832;SDS011;8533;48.426;10.868;2023-04-15T05:13:28;7.97;;;4.27;;
16832;SDS011;8533;48.426;10.868;2023-04-15T05:15:57;7.50;;;4.13;;
16832;SDS011;8533;48.426;10.868;2023-04-15T05:18:24;6.97;;;3.77;;
16832;SDS011;8533;48.426;10.868;2023-04-15T05:20:52;7.50;;;4.27;;
16832;SDS011;8533;48.426;10.868;2023-04-15T05:23:19;7.87;;;4.17;;
16832;SDS011;8533;48.426;10.868;2023-04-15T05:25:47;5.53;;;3.90;;
16832;SDS011;8533;48.426;10.868;2023-04-15T05:28:14;5.53;;;3.80;;
16832;SDS011;8533;48.426;10.868;2023-04-15T05:30:42;10.03;;;3.90;;
16832;SDS011;8533;48.426;10.868;2023-04-15T05:33:10;4.20;;;3.53;;
16832;SDS011;8533;48.426;10.868;2023-04-15T05:35:37;8.03;;;3.50;;
16832;SDS011;8533;48.426;10.868;2023-04-15T05:38:05;7.17;;;3.40;;
16832;SDS011;8533;48.426;10.868;2023-04-15T05:40:32;10.07;;;3.80;;
16832;SDS011;8533;48.426;10.868;2023-04-15T05:43:00;5.80;;;3.37;;
16832;SDS011;8533;48.426;10.868;2023-04-15T05:45:27;5.10;;;3.30;;
16832;SDS011;8533;48.426;10.868;2023-04-15T05:47:54;6.17;;;3.27;;
16832;SDS011;8533;48.426;10.868;2023-04-15T05:50:22;5.13;;;2.60;;
16832;SDS011;8533;48.426;10.868;2023-04-15T05:52:49;4.70;;;3.17;;
16832;SDS011;8533;48.426;10.868;2023-04-15T05:55:17;4.37;;;3.30;;
16832;SDS011;8533;48.426;10.868;2023-04-15T05:57:46;5.70;;;3.50;;
16832;SDS011;8533;48.426;10.868;2023-04-15T06:00:14;4.60;;;2.87;;
16832;SDS011;8533;48.426;10.868;2023-04-15T06:02:41;6.43;;;3.00;;
16832;SDS011;8533;48.426;10.868;2023-04-15T06:05:08;4.17;;;3.23;;
16832;SDS011;8533;48.426;10.868;2023-04-15T06:07:36;5.33;;;3.20;;
16832;SDS011;8533;48.426;10.868;2023-04-15T06:10:04;4.13;;;2.77;;
16832;SDS011;8533;48.426;10.868;2023-04-15T06:12:33;5.90;;;2.80;;
16832;SDS011;8533;48.426;10.868;2023-04-15T06:15:00;4.40;;;2.70;;
16832;SDS011;8533;48.426;10.868;2023-04-15T06:17:28;5.20;;;2.60;;
16832;SDS011;8533;48.426;10.868;2023-04-15T06:19:56;10.90;;;3.30;;
16832;SDS011;8533;48.426;10.868;2023-04-15T06:22:23;7.10;;;2.60;;
16832;SDS011;8533;48.426;10.868;2023-04-15T06:24:51;2.97;;;2.40;;
16832;SDS011;8533;48.426;10.868;2023-04-15T06:27:18;4.23;;;2.90;;
16832;SDS011;8533;48.426;10.868;2023-04-15T06:29:47;7.30;;;2.97;;
16832;SDS011;8533;48.426;10.868;2023-04-15T06:32:14;7.30;;;2.50;;
16832;SDS011;8533;48.426;10.868;2023-04-15T06:34:42;4.83;;;2.43;;
16832;SDS011;8533;48.426;10.868;2023-04-15T06:37:09;2.70;;;2.23;;
16832;SDS011;8533;48.426;10.868;2023-04-15T06:39:39;3.37;;;2.33;;
16832;SDS011;8533;48.426;10.868;2023-04-15T06:42:06;2.73;;;2.10;;
16832;SDS011;8533;48.426;10.868;2023-04-15T06:44:35;5.70;;;2.40;;
16832;SDS011;8533;48.426;10.868;2023-04-15T06:47:02;2.60;;;2.10;;
16832;SDS011;8533;48.426;10.868;2023-04-15T06:49:30;2.33;;;2.07;;
16832;SDS011;8533;48.426;10.868;2023-04-15T06:51:59;8.83;;;2.70;;
16832;SDS011;8533;48.426;10.868;2023-04-15T06:54:27;4.87;;;2.70;;
16832;SDS011;8533;48.426;10.868;2023-04-15T06:56:56;7.37;;;2.90;;
16832;SDS011;8533;48.426;10.868;2023-04-15T06:59:24;6.07;;;2.40;;
16832;SDS011;8533;48.426;10.868;2023-04-15T07:01:51;1.80;;;1.67;;
16832;SDS011;8533;48.426;10.868;2023-04-15T07:04:20;5.60;;;1.97;;
16832;SDS011;8533;48.426;10.868;2023-04-15T07:06:47;4.00;;;2.10;;
16832;SDS011;8533;48.426;10.868;2023-04-15T07:09:15;2.83;;;2.07;;
16832;SDS011;8533;48.426;10.868;2023-04-15T07:11:42;3.47;;;2.10;;
16832;SDS011;8533;48.426;10.868;2023-04-15T07:14:10;2.47;;;1.90;;
16832;SDS011;8533;48.426;10.868;2023-04-15T07:16:37;7.87;;;2.00;;
16832;SDS011;8533;48.426;10.868;2023-04-15T07:19:04;6.40;;;2.00;;
16832;SDS011;8533;48.426;10.868;2023-04-15T07:21:32;2.47;;;2.10;;
16832;SDS011;8533;48.426;10.868;2023-04-15T07:24:01;2.50;;;1.90;;
16832;SDS011;8533;48.426;10.868;2023-04-15T07:26:29;3.87;;;1.90;;
16832;SDS011;8533;48.426;10.868;2023-04-15T07:28:56;4.57;;;2.27;;
16832;SDS011;8533;48.426;10.868;2023-04-15T07:31:23;6.17;;;2.37;;
16832;SDS011;8533;48.426;10.868;2023-04-15T07:33:51;2.57;;;2.00;;
16832;SDS011;8533;48.426;10.868;2023-04-15T07:36:19;4.63;;;1.80;;
16832;SDS011;8533;48.426;10.868;2023-04-15T07:38:46;4.33;;;2.33;;
16832;SDS011;8533;48.426;10.868;2023-04-15T07:41:14;4.10;;;1.83;;
16832;SDS011;8533;48.426;10.868;2023-04-15T07:43:42;6.00;;;2.27;;
16832;SDS011;8533;48.426;10.868;2023-04-15T07:46:11;4.97;;;1.93;;
16832;SDS011;8533;48.426;10.868;2023-04-15T07:48:38;2.80;;;2.00;;
16832;SDS011;8533;48.426;10.868;2023-04-15T07:51:06;3.57;;;2.30;;
16832;SDS011;8533;48.426;10.868;2023-04-15T07:53:35;3.57;;;1.73;;
16832;SDS011;8533;48.426;10.868;2023-04-15T07:56:04;3.47;;;2.00;;
16832;SDS011;8533;48.426;10.868;2023-04-15T07:58:32;4.37;;;1.90;;
16832;SDS011;8533;48.426;10.868;2023-04-15T08:00:59;5.67;;;1.90;;
16832;SDS011;8533;48.426;10.868;2023-04-15T08:03:26;2.57;;;1.63;;
16832;SDS011;8533;48.426;10.868;2023-04-15T08:05:54;2.47;;;1.60;;
16832;SDS011;8533;48.426;10.868;2023-04-15T08:08:22;4.30;;;2.30;;
16832;SDS011;8533;48.426;10.868;2023-04-15T08:10:50;3.77;;;1.97;;
16832;SDS011;8533;48.426;10.868;2023-04-15T08:13:17;9.27;;;2.10;;
16832;SDS011;8533;48.426;10.868;2023-04-15T08:15:45;3.53;;;2.10;;
16832;SDS011;8533;48.426;10.868;2023-04-15T08:18:14;5.50;;;1.97;;
16832;SDS011;8533;48.426;10.868;2023-04-15T08:20:41;3.83;;;2.50;;
16832;SDS011;8533;48.426;10.868;2023-04-15T08:23:09;4.50;;;2.20;;
16832;SDS011;8533;48.426;10.868;2023-04-15T08:25:36;4.77;;;2.17;;
16832;SDS011;8533;48.426;10.868;2023-04-15T08:28:04;2.80;;;1.80;;
16832;SDS011;8533;48.426;10.868;2023-04-15T08:30:32;5.37;;;2.10;;
16832;SDS011;8533;48.426;10.868;2023-04-15T08:32:59;5.80;;;2.10;;
16832;SDS011;8533;48.426;10.868;2023-04-15T08:35:26;4.10;;;2.23;;
16832;SDS011;8533;48.426;10.868;2023-04-15T08:37:54;5.20;;;1.70;;
16832;SDS011;8533;48.426;10.868;2023-04-15T08:40:21;2.43;;;1.80;;
16832;SDS011;8533;48.426;10.868;2023-04-15T08:42:51;4.60;;;2.10;;
16832;SDS011;8533;48.426;10.868;2023-04-15T08:45:23;2.47;;;2.00;;
16832;SDS011;8533;48.426;10.868;2023-04-15T08:47:51;4.97;;;1.93;;
16832;SDS011;8533;48.426;10.868;2023-04-15T08:50:21;4.27;;;2.63;;
16832;SDS011;8533;48.426;10.868;2023-04-15T08:52:52;4.83;;;2.13;;
16832;SDS011;8533;48.426;10.868;2023-04-15T08:55:21;3.63;;;2.10;;
16832;SDS011;8533;48.426;10.868;2023-04-15T08:57:51;5.17;;;2.60;;
16832;SDS011;8533;48.426;10.868;2023-04-15T09:00:18;2.93;;;2.20;;
16832;SDS011;8533;48.426;10.868;2023-04-15T09:02:46;3.03;;;1.87;;
16832;SDS011;8533;48.426;10.868;2023-04-15T09:05:14;4.27;;;2.27;;
16832;SDS011;8533;48.426;10.868;2023-04-15T09:07:42;3.50;;;2.33;;
16832;SDS011;8533;48.426;10.868;2023-04-15T09:10:09;5.47;;;2.30;;
16832;SDS011;8533;48.426;10.868;2023-04-15T09:12:37;3.30;;;2.13;;
16832;SDS011;8533;48.426;10.868;2023-04-15T09:15:04;3.53;;;2.50;;
16832;SDS011;8533;48.426;10.868;2023-04-15T09:17:33;2.93;;;2.20;;
16832;SDS011;8533;48.426;10.868;2023-04-15T09:20:09;4.57;;;2.80;;
16832;SDS011;8533;48.426;10.868;2023-04-15T09:27:53;3.70;;;2.23;;
16832;SDS011;8533;48.426;10.868;2023-04-15T09:30:22;4.53;;;2.50;;
16832;SDS011;8533;48.426;10.868;2023-04-15T09:32:50;4.83;;;2.50;;
16832;SDS011;8533;48.426;10.868;2023-04-15T09:35:19;5.40;;;2.70;;
16832;SDS011;8533;48.426;10.868;2023-04-15T09:37:48;5.43;;;2.50;;
16832;SDS011;8533;48.426;10.868;2023-04-15T09:43:03;6.73;;;3.20;;
16832;SDS011;8533;48.426;10.868;2023-04-15T09:45:33;6.70;;;2.63;;
16832;SDS011;8533;48.426;10.868;2023-04-15T09:50:51;3.17;;;2.27;;
16832;SDS011;8533;48.426;10.868;2023-04-15T09:53:19;7.10;;;3.07;;
16832;SDS011;8533;48.426;10.868;2023-04-15T09:55:49;3.33;;;2.67;;
16832;SDS011;8533;48.426;10.868;2023-04-15T09:58:19;3.33;;;2.87;;
16832;SDS011;8533;48.426;10.868;2023-04-15T10:03:23;4.67;;;2.63;;
16832;SDS011;8533;48.426;10.868;2023-04-15T10:05:52;3.40;;;2.60;;
16832;SDS011;8533;48.426;10.868;2023-04-15T10:08:22;3.57;;;2.80;;
16832;SDS011;8533;48.426;10.868;2023-04-15T10:10:51;5.40;;;3.70;;
16832;SDS011;8533;48.426;10.868;2023-04-15T10:13:20;4.87;;;2.90;;
16832;SDS011;8533;48.426;10.868;2023-04-15T10:18:43;6.87;;;3.20;;
16832;SDS011;8533;48.426;10.868;2023-04-15T10:21:12;4.47;;;3.10;;
16832;SDS011;8533;48.426;10.868;2023-04-15T10:23:42;4.77;;;3.13;;
16832;SDS011;8533;48.426;10.868;2023-04-15T10:26:12;4.57;;;3.47;;
16832;SDS011;8533;48.426;10.868;2023-04-15T10:28:42;8.73;;;3.40;;
16832;SDS011;8533;48.426;10.868;2023-04-15T10:31:11;5.93;;;3.57;;
16832;SDS011;8533;48.426;10.868;2023-04-15T10:33:40;7.10;;;3.70;;
16832;SDS011;8533;48.426;10.868;2023-04-15T10:36:10;5.83;;;3.77;;
16832;SDS011;8533;48.426;10.868;2023-04-15T10:38:44;7.30;;;4.23;;
16832;SDS011;8533;48.426;10.868;2023-04-15T10:41:18;5.10;;;3.93;;
16832;SDS011;8533;48.426;10.868;2023-04-15T10:46:22;5.90;;;3.53;;
16832;SDS011;8533;48.426;10.868;2023-04-15T10:49:07;4.17;;;3.37;;
16832;SDS011;8533;48.426;10.868;2023-04-15T10:51:44;5.60;;;3.90;;
16832;SDS011;8533;48.426;10.868;2023-04-15T10:56:44;4.40;;;2.90;;
16832;SDS011;8533;48.426;10.868;2023-04-15T10:59:13;3.30;;;2.50;;
16832;SDS011;8533;48.426;10.868;2023-04-15T11:02:01;2.97;;;2.10;;
16832;SDS011;8533;48.426;10.868;2023-04-15T11:07:35;1.70;;;1.30;;
16832;SDS011;8533;48.426;10.868;2023-04-15T11:18:08;2.50;;;1.30;;
16832;SDS011;8533;48.426;10.868;2023-04-15T11:20:47;1.60;;;1.43;;
16832;SDS011;8533;48.426;10.868;2023-04-15T11:23:26;1.83;;;1.47;;
16832;SDS011;8533;48.426;10.868;2023-04-15T11:28:27;1.57;;;1.40;;
16832;SDS011;8533;48.426;10.868;2023-04-15T11:30:55;3.53;;;1.77;;
16832;SDS011;8533;48.426;10.868;2023-04-15T11:33:24;3.03;;;1.60;;
16832;SDS011;8533;48.426;10.868;2023-04-15T11:35:52;19.27;;;9.13;;
16832;SDS011;8533;48.426;10.868;2023-04-15T11:38:25;4.10;;;1.97;;
16832;SDS011;8533;48.426;10.868;2023-04-15T11:40:49;2.23;;;1.40;;
16832;SDS011;8533;48.426;10.868;2023-04-15T11:43:18;3.27;;;1.60;;
16832;SDS011;8533;48.426;10.868;2023-04-15T11:45:50;1.50;;;1.40;;
16832;SDS011;8533;48.426;10.868;2023-04-15T11:50:56;2.10;;;1.90;;
16832;SDS011;8533;48.426;10.868;2023-04-15T11:56:17;2.10;;;1.90;;
16832;SDS011;8533;48.426;10.868;2023-04-15T11:58:45;6.27;;;2.73;;
16832;SDS011;8533;48.426;10.868;2023-04-15T12:01:15;2.93;;;1.93;;
16832;SDS011;8533;48.426;10.868;2023-04-15T12:03:46;2.77;;;2.40;;
16832;SDS011;8533;48.426;10.868;2023-04-15T12:06:23;4.50;;;2.40;;
16832;SDS011;8533;48.426;10.868;2023-04-15T12:14:04;3.53;;;2.10;;
16832;SDS011;8533;48.426;10.868;2023-04-15T12:16:53;2.47;;;1.93;;
16832;SDS011;8533;48.426;10.868;2023-04-15T12:19:26;2.10;;;1.90;;
16832;SDS011;8533;48.426;10.868;2023-04-15T12:24:28;5.70;;;3.10;;
16832;SDS011;8533;48.426;10.868;2023-04-15T12:27:00;4.60;;;2.70;;
16832;SDS011;8533;48.426;10.868;2023-04-15T12:29:30;4.27;;;2.67;;
16832;SDS011;8533;48.426;10.868;2023-04-15T12:32:06;5.40;;;3.07;;
16832;SDS011;8533;48.426;10.868;2023-04-15T12:37:06;4.03;;;2.67;;
16832;SDS011;8533;48.426;10.868;2023-04-15T12:39:35;5.00;;;2.67;;
16832;SDS011;8533;48.426;10.868;2023-04-15T12:42:04;5.07;;;2.90;;
16832;SDS011;8533;48.426;10.868;2023-04-15T12:44:33;6.30;;;2.60;;
16832;SDS011;8533;48.426;10.868;2023-04-15T12:47:02;2.60;;;2.33;;
16832;SDS011;8533;48.426;10.868;2023-04-15T12:49:30;4.63;;;2.40;;
16832;SDS011;8533;48.426;10.868;2023-04-15T12:51:58;3.93;;;2.70;;
16832;SDS011;8533;48.426;10.868;2023-04-15T12:54:27;3.53;;;2.43;;
16832;SDS011;8533;48.426;10.868;2023-04-15T12:56:56;2.27;;;2.00;;
16832;SDS011;8533;48.426;10.868;2023-04-15T12:59:25;5.53;;;2.00;;
16832;SDS011;8533;48.426;10.868;2023-04-15T13:01:54;3.23;;;1.87;;
16832;SDS011;8533;48.426;10.868;2023-04-15T13:04:22;4.70;;;2.30;;
16832;SDS011;8533;48.426;10.868;2023-04-15T13:06:50;4.33;;;2.27;;
16832;SDS011;8533;48.426;10.868;2023-04-15T13:09:17;2.67;;;2.23;;
16832;SDS011;8533;48.426;10.868;2023-04-15T13:11:45;3.90;;;2.03;;
16832;SDS011;8533;48.426;10.868;2023-04-15T13:14:12;2.70;;;2.00;;
16832;SDS011;8533;48.426;10.868;2023-04-15T13:16:40;2.10;;;1.83;;
16832;SDS011;8533;48.426;10.868;2023-04-15T13:19:07;2.80;;;2.00;;
16832;SDS011;8533;48.426;10.868;2023-04-15T13:21:35;3.40;;;2.33;;
16832;SDS011;8533;48.426;10.868;2023-04-15T13:24:02;2.43;;;2.20;;
16832;SDS011;8533;48.426;10.868;2023-04-15T13:26:31;3.10;;;2.20;;
16832;SDS011;8533;48.426;10.868;2023-04-15T13:28:59;2.53;;;2.33;;
16832;SDS011;8533;48.426;10.868;2023-04-15T13:31:27;3.43;;;2.43;;
16832;SDS011;8533;48.426;10.868;2023-04-15T13:33:55;6.50;;;2.57;;
16832;SDS011;8533;48.426;10.868;2023-04-15T13:36:22;3.07;;;2.30;;
16832;SDS011;8533;48.426;10.868;2023-04-15T13:38:51;3.27;;;2.50;;
16832;SDS011;8533;48.426;10.868;2023-04-15T13:41:18;4.03;;;2.93;;
16832;SDS011;8533;48.426;10.868;2023-04-15T13:43:45;5.03;;;2.77;;
16832;SDS011;8533;48.426;10.868;2023-04-15T13:46:13;3.90;;;2.60;;
16832;SDS011;8533;48.426;10.868;2023-04-15T13:48:41;4.53;;;2.70;;
16832;SDS011;8533;48.426;10.868;2023-04-15T13:51:08;2.83;;;2.20;;
16832;SDS011;8533;48.426;10.868;2023-04-15T13:53:35;4.23;;;2.87;;
16832;SDS011;8533;48.426;10.868;2023-04-15T13:56:03;4.10;;;2.83;;
16832;SDS011;8533;48.426;10.868;2023-04-15T13:58:31;2.97;;;2.47;;
16832;SDS011;8533;48.426;10.868;2023-04-15T14:00:58;4.80;;;3.20;;
16832;SDS011;8533;48.426;10.868;2023-04-15T14:03:26;14.37;;;4.50;;
16832;SDS011;8533;48.426;10.868;2023-04-15T14:05:53;5.43;;;2.63;;
16832;SDS011;8533;48.426;10.868;2023-04-15T14:08:23;3.27;;;2.40;;
16832;SDS011;8533;48.426;10.868;2023-04-15T14:10:51;3.00;;;2.40;;
16832;SDS011;8533;48.426;10.868;2023-04-15T14:13:18;3.77;;;2.70;;
16832;SDS011;8533;48.426;10.868;2023-04-15T14:15:46;4.03;;;2.67;;
16832;SDS011;8533;48.426;10.868;2023-04-15T14:18:13;2.90;;;2.47;;
16832;SDS011;8533;48.426;10.868;2023-04-15T14:20:40;2.43;;;2.17;;
16832;SDS011;8533;48.426;10.868;2023-04-15T14:23:11;3.13;;;2.43;;
16832;SDS011;8533;48.426;10.868;2023-04-15T14:25:38;3.73;;;2.23;;
16832;SDS011;8533;48.426;10.868;2023-04-15T14:28:07;4.10;;;2.90;;
16832;SDS011;8533;48.426;10.868;2023-04-15T14:30:34;5.00;;;3.17;;
16832;SDS011;8533;48.426;10.868;2023-04-15T14:33:02;5.67;;;3.33;;
16832;SDS011;8533;48.426;10.868;2023-04-15T14:35:32;5.60;;;3.30;;
16832;SDS011;8533;48.426;10.868;2023-04-15T14:38:00;4.07;;;3.30;;
16832;SDS011;8533;48.426;10.868;2023-04-15T14:40:28;4.27;;;2.40;;
16832;SDS011;8533;48.426;10.868;2023-04-15T14:42:55;2.27;;;2.07;;
16832;SDS011;8533;48.426;10.868;2023-04-15T14:45:23;3.33;;;2.00;;
16832;SDS011;8533;48.426;10.868;2023-04-15T14:47:50;2.77;;;2.20;;
16832;SDS011;8533;48.426;10.868;2023-04-15T14:50:18;3.37;;;2.47;;
16832;SDS011;8533;48.426;10.868;2023-04-15T14:52:45;3.53;;;2.30;;
16832;SDS011;8533;48.426;10.868;2023-04-15T14:55:13;4.13;;;2.37;;
16832;SDS011;8533;48.426;10.868;2023-04-15T14:57:41;3.20;;;2.60;;
16832;SDS011;8533;48.426;10.868;2023-04-15T15:00:09;3.13;;;2.50;;
16832;SDS011;8533;48.426;10.868;2023-04-15T15:02:37;5.37;;;2.90;;
16832;SDS011;8533;48.426;10.868;2023-04-15T15:05:04;4.57;;;2.60;;
16832;SDS011;8533;48.426;10.868;2023-04-15T15:07:33;3.23;;;2.30;;
16832;SDS011;8533;48.426;10.868;2023-04-15T15:10:05;5.53;;;2.80;;
16832;SDS011;8533;48.426;10.868;2023-04-15T15:12:33;4.07;;;2.50;;
16832;SDS011;8533;48.426;10.868;2023-04-15T15:15:01;3.07;;;2.47;;
16832;SDS011;8533;48.426;10.868;2023-04-15T15:17:29;2.33;;;2.03;;
16832;SDS011;8533;48.426;10.868;2023-04-15T15:19:56;3.63;;;2.50;;
16832;SDS011;8533;48.426;10.868;2023-04-15T15:22:28;4.80;;;3.47;;
16832;SDS011;8533;48.426;10.868;2023-04-15T15:24:55;2.90;;;2.60;;
16832;SDS011;8533;48.426;10.868;2023-04-15T15:27:24;3.57;;;2.20;;
16832;SDS011;8533;48.426;10.868;2023-04-15T15:29:52;4.13;;;3.60;;
16832;SDS011;8533;48.426;10.868;2023-04-15T15:32:20;3.23;;;2.90;;
16832;SDS011;8533;48.426;10.868;2023-04-15T15:34:47;3.03;;;2.63;;
16832;SDS011;8533;48.426;10.868;2023-04-15T15:37:16;5.00;;;2.30;;
16832;SDS011;8533;48.426;10.868;2023-04-15T15:39:44;2.60;;;2.40;;
16832;SDS011;8533;48.426;10.868;2023-04-15T15:42:11;4.03;;;2.70;;
16832;SDS011;8533;48.426;10.868;2023-04-15T15:44:38;5.00;;;2.70;;